Time;durP1;ratioP1;P1;durP2;ratioP2;P2;SDS_P1;SDS_P2;PMS_P1;PMS_P2;Temp;Humidity;BMP_temperature;BMP_pressure;BME280_temperature;BME280_humidity;BME280_pressure;Samples;Min_cycle;Max_cycle;Signal;HPM_P1;HPM_P2
2022/07/16 00:02:21;;;;;;;3.80;0.90;;;;;;;;;;5088081;28;20329;-20
2022/07/16 00:04:48;;;;;;;6.15;1.17;;;;;;;;;;5090942;28;20259;-21
2022/07/16 00:07:16;;;;;;;5.53;1.40;;;;;;;;;;5088707;28;20320;-20
2022/07/16 00:09:45;;;;;;;4.55;1.20;;;;;;;;;;5089154;28;20339;-20
2022/07/16 00:12:12;;;;;;;5.63;1.20;;;;;;;;;;5090257;28;20229;-20
2022/07/16 00:14:39;;;;;;;1.75;0.90;;;;;;;;;;5091341;28;20248;-20
2022/07/16 00:17:07;;;;;;;4.55;1.30;;;;;;;;;;5088661;28;20728;-20
2022/07/16 00:19:33;;;;;;;2.08;1.00;;;;;;;;;;5090470;28;20233;-20
2022/07/16 00:22:00;;;;;;;3.08;1.30;;;;;;;;;;5086055;28;20241;-20
2022/07/16 00:24:28;;;;;;;2.25;1.25;;;;;;;;;;5088921;28;20225;-20
2022/07/16 00:26:56;;;;;;;4.75;1.30;;;;;;;;;;5091244;28;20233;-21
2022/07/16 00:29:24;;;;;;;1.95;1.00;;;;;;;;;;5088200;28;20263;-20
2022/07/16 00:31:51;;;;;;;1.77;0.95;;;;;;;;;;5075946;28;20226;-20
2022/07/16 00:34:19;;;;;;;4.78;1.00;;;;;;;;;;5090664;28;20316;-20
2022/07/16 00:36:46;;;;;;;2.83;1.20;;;;;;;;;;5085935;28;20229;-20
2022/07/16 00:39:13;;;;;;;1.50;1.00;;;;;;;;;;5079062;28;20237;-20
2022/07/16 00:41:41;;;;;;;1.80;0.90;;;;;;;;;;5089958;28;20233;-20
2022/07/16 00:44:10;;;;;;;3.00;1.08;;;;;;;;;;5076664;28;20243;-20
2022/07/16 00:46:38;;;;;;;1.60;1.02;;;;;;;;;;5083128;28;21113;-20
2022/07/16 00:49:05;;;;;;;2.60;1.10;;;;;;;;;;5086993;28;20726;-21
2022/07/16 00:51:33;;;;;;;1.50;0.98;;;;;;;;;;5088326;28;20235;-20
2022/07/16 00:54:00;;;;;;;1.58;1.00;;;;;;;;;;5081635;28;20233;-20
2022/07/16 00:56:27;;;;;;;5.82;1.30;;;;;;;;;;5090453;28;20228;-20
2022/07/16 00:58:55;;;;;;;1.83;1.10;;;;;;;;;;5090990;28;20258;-20
2022/07/16 01:01:24;;;;;;;1.75;1.20;;;;;;;;;;5091180;28;20237;-19
2022/07/16 01:03:51;;;;;;;1.27;0.85;;;;;;;;;;5077682;28;20696;-20
2022/07/16 01:06:19;;;;;;;1.77;1.17;;;;;;;;;;5088266;28;20229;-20
2022/07/16 01:08:47;;;;;;;2.00;1.00;;;;;;;;;;5090176;28;20228;-19
2022/07/16 01:11:15;;;;;;;2.47;1.02;;;;;;;;;;5090463;28;20225;-19
2022/07/16 01:13:43;;;;;;;2.03;1.23;;;;;;;;;;5089526;28;20279;-20
2022/07/16 01:16:10;;;;;;;1.60;1.02;;;;;;;;;;5084210;28;20701;-20
2022/07/16 01:18:39;;;;;;;1.95;0.93;;;;;;;;;;5076180;28;20233;-20
2022/07/16 01:21:11;;;;;;;2.40;1.10;;;;;;;;;;5083936;28;20240;-20
2022/07/16 01:23:39;;;;;;;1.63;1.00;;;;;;;;;;5088901;28;20229;-20
2022/07/16 01:26:07;;;;;;;2.97;0.98;;;;;;;;;;5081547;28;20232;-20
2022/07/16 01:28:34;;;;;;;1.90;1.20;;;;;;;;;;5086232;28;20233;-20
2022/07/16 01:31:01;;;;;;;1.77;0.90;;;;;;;;;;5084539;28;20217;-20
2022/07/16 01:33:29;;;;;;;2.75;1.00;;;;;;;;;;5082184;28;20238;-20
2022/07/16 01:35:57;;;;;;;2.13;1.00;;;;;;;;;;5094723;28;20251;-20
2022/07/16 01:38:24;;;;;;;1.50;1.10;;;;;;;;;;5093097;28;20323;-20
2022/07/16 01:40:53;;;;;;;3.53;1.08;;;;;;;;;;5090243;28;20608;-20
2022/07/16 01:43:21;;;;;;;1.40;1.00;;;;;;;;;;5093019;28;20229;-20
2022/07/16 01:45:48;;;;;;;1.95;1.10;;;;;;;;;;5087972;28;20225;-20
2022/07/16 01:48:16;;;;;;;1.70;0.98;;;;;;;;;;5081181;28;20275;-18
2022/07/16 01:50:43;;;;;;;1.38;0.98;;;;;;;;;;5093765;28;20280;-19
2022/07/16 01:53:11;;;;;;;3.28;1.10;;;;;;;;;;5088208;28;20765;-18
2022/07/16 01:55:38;;;;;;;1.88;1.00;;;;;;;;;;5092951;28;20228;-20
2022/07/16 01:58:07;;;;;;;1.38;0.90;;;;;;;;;;5094118;28;20225;-20
2022/07/16 02:00:35;;;;;;;1.33;1.00;;;;;;;;;;5090664;28;20240;-20
2022/07/16 02:03:02;;;;;;;1.88;1.17;;;;;;;;;;5089056;28;20229;-20
2022/07/16 02:05:30;;;;;;;1.27;0.90;;;;;;;;;;5093223;28;20721;-20
2022/07/16 02:07:57;;;;;;;2.10;0.98;;;;;;;;;;5093715;28;20228;-19
2022/07/16 02:10:25;;;;;;;1.42;0.73;;;;;;;;;;5093180;28;20240;-20
2022/07/16 02:12:52;;;;;;;0.93;0.90;;;;;;;;;;5090392;28;20260;-19
2022/07/16 02:15:21;;;;;;;1.88;1.20;;;;;;;;;;5081035;28;20257;-19
2022/07/16 02:17:48;;;;;;;2.83;1.27;;;;;;;;;;5078552;28;20229;-21
2022/07/16 02:22:50;;;;;;;1.58;1.13;;;;;;;;;;5066159;28;20241;-18
2022/07/16 02:25:18;;;;;;;1.73;1.10;;;;;;;;;;5077601;28;20228;-16
2022/07/16 02:30:28;;;;;;;2.08;1.17;;;;;;;;;;5063508;28;20943;-16
2022/07/16 02:32:55;;;;;;;1.90;1.40;;;;;;;;;;5076093;28;20723;-16
2022/07/16 02:35:23;;;;;;;1.65;1.10;;;;;;;;;;5091237;28;20323;-16
2022/07/16 02:37:50;;;;;;;2.85;1.30;;;;;;;;;;5075888;28;20315;-18
2022/07/16 02:40:18;;;;;;;1.75;1.30;;;;;;;;;;5071592;28;20273;-18
2022/07/16 02:42:45;;;;;;;2.63;1.45;;;;;;;;;;5072512;28;20222;-18
2022/07/16 02:45:13;;;;;;;2.45;1.40;;;;;;;;;;5060591;28;20357;-18
2022/07/16 02:47:41;;;;;;;2.15;1.30;;;;;;;;;;5072548;28;20303;-18
2022/07/16 02:50:09;;;;;;;2.08;1.20;;;;;;;;;;5075380;28;20225;-18
2022/07/16 02:52:37;;;;;;;2.90;1.50;;;;;;;;;;5071451;28;20220;-18
2022/07/16 02:55:04;;;;;;;2.03;1.38;;;;;;;;;;5091220;28;20703;-18
2022/07/16 02:57:32;;;;;;;3.55;1.60;;;;;;;;;;5072866;28;20232;-18
2022/07/16 02:59:59;;;;;;;4.97;1.58;;;;;;;;;;5071881;28;20404;-17
2022/07/16 03:02:27;;;;;;;2.20;1.40;;;;;;;;;;5065361;28;20244;-18
2022/07/16 03:04:56;;;;;;;3.25;1.35;;;;;;;;;;5072127;28;20238;-18
2022/07/16 03:07:23;;;;;;;1.88;1.25;;;;;;;;;;5075532;28;20324;-18
2022/07/16 03:09:50;;;;;;;2.38;1.40;;;;;;;;;;5072218;28;20351;-18
2022/07/16 03:12:18;;;;;;;2.95;1.45;;;;;;;;;;5069288;28;20630;-18
2022/07/16 03:14:46;;;;;;;3.05;1.25;;;;;;;;;;5065674;28;20333;-18
2022/07/16 03:17:13;;;;;;;2.55;1.35;;;;;;;;;;5071968;28;20229;-19
2022/07/16 03:19:41;;;;;;;2.03;1.20;;;;;;;;;;5072348;28;20233;-18
2022/07/16 03:22:09;;;;;;;2.33;1.50;;;;;;;;;;5063012;28;20712;-18
2022/07/16 03:24:37;;;;;;;3.03;1.58;;;;;;;;;;5062298;28;20337;-18
2022/07/16 03:27:04;;;;;;;4.05;1.40;;;;;;;;;;5054716;28;20234;-18
2022/07/16 03:29:31;;;;;;;3.03;1.80;;;;;;;;;;5072002;28;20229;-18
2022/07/16 03:31:59;;;;;;;3.45;1.40;;;;;;;;;;5071580;28;20781;-18
2022/07/16 03:34:26;;;;;;;3.30;1.42;;;;;;;;;;5070876;28;20233;-18
2022/07/16 03:36:54;;;;;;;1.92;1.60;;;;;;;;;;5071680;28;20255;-18
2022/07/16 03:39:22;;;;;;;2.22;1.20;;;;;;;;;;5070605;28;20235;-18
2022/07/16 03:41:50;;;;;;;2.20;1.40;;;;;;;;;;5072226;28;20271;-18
2022/07/16 03:44:17;;;;;;;3.33;1.70;;;;;;;;;;5065890;28;20268;-18
2022/07/16 03:46:44;;;;;;;2.75;1.33;;;;;;;;;;5060237;28;20320;-18
2022/07/16 03:49:12;;;;;;;3.30;1.50;;;;;;;;;;5068035;28;20328;-18
2022/07/16 03:51:39;;;;;;;6.85;2.33;;;;;;;;;;5062612;28;20233;-18
2022/07/16 03:54:07;;;;;;;3.00;1.50;;;;;;;;;;5054684;28;20692;-18
2022/07/16 03:56:35;;;;;;;2.17;1.20;;;;;;;;;;5071074;28;20316;-18
2022/07/16 03:59:03;;;;;;;3.70;1.60;;;;;;;;;;5070579;28;20241;-18
2022/07/16 04:01:30;;;;;;;2.78;1.35;;;;;;;;;;5072229;28;20331;-18
2022/07/16 04:03:58;;;;;;;2.40;1.20;;;;;;;;;;5065131;28;20230;-18
2022/07/16 04:06:25;;;;;;;2.67;1.90;;;;;;;;;;5066317;28;20328;-18
2022/07/16 04:08:52;;;;;;;5.28;1.45;;;;;;;;;;5057943;28;20234;-18
2022/07/16 04:11:20;;;;;;;5.18;1.63;;;;;;;;;;5058388;28;20225;-18
2022/07/16 04:13:49;;;;;;;2.50;1.25;;;;;;;;;;5063773;28;20280;-18
2022/07/16 04:16:17;;;;;;;2.65;1.70;;;;;;;;;;5060047;28;20257;-18
2022/07/16 04:18:44;;;;;;;2.40;1.50;;;;;;;;;;5071120;28;20221;-18
2022/07/16 04:21:12;;;;;;;4.53;1.48;;;;;;;;;;5071455;28;20885;-18
2022/07/16 04:23:39;;;;;;;2.03;1.38;;;;;;;;;;5062601;28;20229;-18
2022/07/16 04:26:06;;;;;;;3.65;1.73;;;;;;;;;;5071170;28;20320;-18
2022/07/16 04:28:34;;;;;;;4.63;1.33;;;;;;;;;;5060173;28;20236;-18
2022/07/16 04:31:02;;;;;;;2.47;1.52;;;;;;;;;;5053247;28;20233;-16
2022/07/16 04:33:30;;;;;;;3.42;1.33;;;;;;;;;;5054294;28;20324;-18
2022/07/16 04:35:57;;;;;;;2.17;1.27;;;;;;;;;;5069799;28;20233;-18
2022/07/16 04:38:25;;;;;;;2.42;1.20;;;;;;;;;;5063076;28;20317;-18
2022/07/16 04:40:52;;;;;;;1.35;1.10;;;;;;;;;;5070991;28;20331;-17
2022/07/16 04:43:20;;;;;;;4.07;1.40;;;;;;;;;;5067759;28;20233;-18
2022/07/16 04:45:47;;;;;;;1.90;1.10;;;;;;;;;;5071075;28;20728;-18
2022/07/16 04:48:16;;;;;;;1.75;0.75;;;;;;;;;;5069898;28;20966;-18
2022/07/16 04:50:43;;;;;;;2.45;1.00;;;;;;;;;;5070551;28;20233;-18
2022/07/16 04:53:10;;;;;;;2.22;1.00;;;;;;;;;;5054514;28;20240;-18
2022/07/16 04:55:38;;;;;;;2.75;1.00;;;;;;;;;;5063571;28;20226;-18
2022/07/16 04:58:05;;;;;;;3.53;1.20;;;;;;;;;;5063755;28;20226;-18
2022/07/16 05:00:33;;;;;;;2.47;1.02;;;;;;;;;;5070474;28;20237;-18
2022/07/16 05:03:00;;;;;;;2.83;1.20;;;;;;;;;;5070346;28;20230;-18
2022/07/16 05:05:30;;;;;;;3.38;1.20;;;;;;;;;;5061578;28;20256;-18
2022/07/16 05:07:57;;;;;;;2.38;0.90;;;;;;;;;;5058489;28;20416;-18
2022/07/16 05:10:25;;;;;;;4.75;1.52;;;;;;;;;;5066102;28;20222;-18
2022/07/16 05:12:52;;;;;;;2.47;1.02;;;;;;;;;;5067820;28;20234;-18
2022/07/16 05:15:20;;;;;;;2.20;1.15;;;;;;;;;;5068730;28;20229;-18
2022/07/16 05:17:47;;;;;;;2.17;1.17;;;;;;;;;;5067513;28;20226;-18
2022/07/16 05:20:15;;;;;;;2.58;0.90;;;;;;;;;;5068886;28;20245;-18
2022/07/16 05:22:43;;;;;;;3.45;1.40;;;;;;;;;;5066959;28;20262;-18
2022/07/16 05:25:11;;;;;;;1.92;1.15;;;;;;;;;;5066554;28;20230;-18
2022/07/16 05:27:39;;;;;;;6.10;1.23;;;;;;;;;;5063437;28;20382;-18
2022/07/16 05:30:07;;;;;;;2.20;1.17;;;;;;;;;;5066308;28;20316;-18
2022/07/16 05:32:39;;;;;;;2.55;1.10;;;;;;;;;;5068910;28;20705;-18
2022/07/16 05:35:07;;;;;;;4.72;1.10;;;;;;;;;;5059145;28;21076;-18
2022/07/16 05:37:35;;;;;;;5.15;1.10;;;;;;;;;;5065749;28;20238;-18
2022/07/16 05:40:04;;;;;;;5.28;1.40;;;;;;;;;;5064319;28;20233;-18
2022/07/16 05:42:32;;;;;;;4.40;1.33;;;;;;;;;;5066743;28;20328;-18
2022/07/16 05:44:59;;;;;;;6.88;1.00;;;;;;;;;;5070257;28;20309;-18
2022/07/16 05:47:27;;;;;;;3.40;0.98;;;;;;;;;;5062608;28;20778;-18
2022/07/16 05:49:54;;;;;;;2.55;1.05;;;;;;;;;;5071176;28;20233;-18
2022/07/16 05:52:22;;;;;;;4.78;1.08;;;;;;;;;;5057714;28;20294;-18
2022/07/16 05:54:49;;;;;;;8.27;1.38;;;;;;;;;;5064164;28;20229;-18
2022/07/16 05:57:18;;;;;;;5.72;1.20;;;;;;;;;;5069902;28;20324;-18
2022/07/16 05:59:45;;;;;;;2.50;1.15;;;;;;;;;;5068135;28;21129;-18
2022/07/16 06:02:13;;;;;;;2.88;1.20;;;;;;;;;;5059834;28;20241;-18
2022/07/16 06:04:40;;;;;;;4.93;1.55;;;;;;;;;;5057939;28;20621;-18
2022/07/16 06:07:08;;;;;;;2.45;1.15;;;;;;;;;;5060732;28;20241;-18
2022/07/16 06:09:35;;;;;;;3.88;1.20;;;;;;;;;;5060851;28;20916;-18
2022/07/16 06:12:03;;;;;;;2.67;1.13;;;;;;;;;;5056598;28;20322;-18
2022/07/16 06:14:32;;;;;;;3.83;1.42;;;;;;;;;;5058893;28;20257;-18
2022/07/16 06:16:59;;;;;;;3.92;1.13;;;;;;;;;;5056927;28;20337;-18
2022/07/16 06:19:26;;;;;;;3.05;1.42;;;;;;;;;;5071824;28;20325;-18
2022/07/16 06:21:54;;;;;;;3.20;1.10;;;;;;;;;;5072570;28;20237;-18
2022/07/16 06:24:21;;;;;;;2.60;1.25;;;;;;;;;;5072870;28;20260;-18
2022/07/16 06:26:49;;;;;;;3.70;1.20;;;;;;;;;;5072091;28;20233;-18
2022/07/16 06:29:16;;;;;;;4.40;1.08;;;;;;;;;;5073214;28;20251;-18
2022/07/16 06:31:45;;;;;;;3.17;1.20;;;;;;;;;;5073593;28;20329;-18
2022/07/16 06:34:13;;;;;;;6.55;1.05;;;;;;;;;;5072765;28;20229;-18
2022/07/16 06:36:40;;;;;;;1.95;1.05;;;;;;;;;;5072997;28;20321;-18
2022/07/16 06:39:08;;;;;;;2.88;1.23;;;;;;;;;;5069598;28;20245;-18
2022/07/16 06:41:35;;;;;;;5.05;1.45;;;;;;;;;;5070476;28;20237;-18
2022/07/16 06:44:03;;;;;;;2.00;1.00;;;;;;;;;;5072478;28;20228;-18
2022/07/16 06:46:31;;;;;;;4.20;1.42;;;;;;;;;;5069499;28;20241;-18
2022/07/16 06:48:59;;;;;;;5.53;1.27;;;;;;;;;;5070958;28;20320;-18
2022/07/16 06:51:27;;;;;;;3.80;1.05;;;;;;;;;;5068100;28;20401;-18
2022/07/16 06:53:54;;;;;;;5.20;1.30;;;;;;;;;;5072190;28;20229;-18
2022/07/16 06:56:22;;;;;;;6.40;1.25;;;;;;;;;;5069644;28;20226;-18
2022/07/16 06:58:50;;;;;;;5.68;1.23;;;;;;;;;;5071575;28;20237;-18
2022/07/16 07:01:17;;;;;;;5.43;1.38;;;;;;;;;;5072337;28;20287;-18
2022/07/16 07:03:44;;;;;;;3.03;1.05;;;;;;;;;;5070140;28;21277;-18
2022/07/16 07:06:13;;;;;;;2.20;0.90;;;;;;;;;;5071677;28;20261;-18
2022/07/16 07:08:41;;;;;;;3.65;1.08;;;;;;;;;;5069137;28;20312;-18
2022/07/16 07:11:15;;;;;;;4.63;1.10;;;;;;;;;;5067380;28;20278;-18
2022/07/16 07:13:43;;;;;;;3.15;1.50;;;;;;;;;;5068912;28;20320;-18
2022/07/16 07:16:10;;;;;;;3.70;1.05;;;;;;;;;;5065143;28;20342;-18
2022/07/16 07:18:38;;;;;;;4.38;1.30;;;;;;;;;;5069250;28;20244;-18
2022/07/16 07:21:05;;;;;;;4.93;1.10;;;;;;;;;;5070457;28;20237;-18
2022/07/16 07:23:34;;;;;;;2.72;1.00;;;;;;;;;;5070796;28;20248;-18
2022/07/16 07:26:01;;;;;;;5.18;0.93;;;;;;;;;;5072352;28;20237;-18
2022/07/16 07:28:29;;;;;;;5.00;1.13;;;;;;;;;;5068781;28;20265;-18
2022/07/16 07:30:56;;;;;;;3.10;0.88;;;;;;;;;;5067217;28;20225;-18
2022/07/16 07:33:24;;;;;;;7.15;1.92;;;;;;;;;;5069218;28;20238;-18
2022/07/16 07:35:51;;;;;;;3.80;0.98;;;;;;;;;;5070914;28;20320;-18
2022/07/16 07:38:19;;;;;;;7.20;1.10;;;;;;;;;;5070069;28;20257;-18
2022/07/16 07:40:47;;;;;;;6.45;1.08;;;;;;;;;;5069503;28;20261;-17
2022/07/16 07:43:16;;;;;;;3.85;1.05;;;;;;;;;;5068735;28;20340;-18
2022/07/16 07:45:44;;;;;;;10.15;1.10;;;;;;;;;;5071106;28;20326;-18
2022/07/16 07:48:11;;;;;;;9.73;1.27;;;;;;;;;;5066557;28;20229;-18
2022/07/16 07:50:38;;;;;;;8.00;1.10;;;;;;;;;;5070389;28;21047;-18
2022/07/16 07:53:06;;;;;;;9.15;0.95;;;;;;;;;;5065287;28;20320;-18
2022/07/16 07:55:33;;;;;;;3.20;0.90;;;;;;;;;;5071156;28;20320;-18
2022/07/16 07:58:02;;;;;;;2.90;0.80;;;;;;;;;;5065943;28;20946;-18
2022/07/16 08:00:30;;;;;;;7.85;1.00;;;;;;;;;;5071353;28;20240;-18
2022/07/16 08:02:57;;;;;;;4.63;1.20;;;;;;;;;;5069699;28;20345;-18
2022/07/16 08:05:25;;;;;;;2.95;1.00;;;;;;;;;;5068323;28;20241;-18
2022/07/16 08:07:52;;;;;;;3.50;0.90;;;;;;;;;;5066890;28;20238;-18
2022/07/16 08:10:20;;;;;;;4.00;1.05;;;;;;;;;;5069661;28;20576;-18
2022/07/16 08:12:48;;;;;;;5.03;1.38;;;;;;;;;;5070033;28;20241;-18
2022/07/16 08:15:16;;;;;;;4.40;1.00;;;;;;;;;;5068423;28;20241;-18
2022/07/16 08:17:44;;;;;;;5.05;0.80;;;;;;;;;;5070458;28;20221;-18
2022/07/16 08:20:13;;;;;;;2.08;0.65;;;;;;;;;;5069307;28;20233;-18
2022/07/16 08:22:41;;;;;;;6.32;1.10;;;;;;;;;;5068141;28;20344;-18
2022/07/16 08:27:54;;;;;;;3.83;0.88;;;;;;;;;;5068346;28;20229;-18
2022/07/16 08:30:22;;;;;;;1.60;0.70;;;;;;;;;;5067744;28;20311;-18
2022/07/16 08:32:50;;;;;;;5.07;0.75;;;;;;;;;;5057314;28;20264;-17
2022/07/16 08:35:17;;;;;;;5.30;0.70;;;;;;;;;;5069227;28;20429;-17
2022/07/16 08:37:46;;;;;;;2.95;0.85;;;;;;;;;;5068429;28;20225;-17
2022/07/16 08:40:14;;;;;;;3.97;0.80;;;;;;;;;;5067454;28;20700;-17
2022/07/16 08:42:41;;;;;;;4.15;0.88;;;;;;;;;;5066482;28;20237;-18
2022/07/16 08:45:09;;;;;;;3.60;1.00;;;;;;;;;;5057087;28;20898;-18
2022/07/16 08:47:38;;;;;;;3.45;0.98;;;;;;;;;;5065472;28;20950;-18
2022/07/16 08:50:08;;;;;;;2.55;0.90;;;;;;;;;;5065448;28;20275;-18
2022/07/16 08:52:37;;;;;;;3.83;0.65;;;;;;;;;;5066892;28;20229;-18
2022/07/16 08:55:05;;;;;;;3.70;0.80;;;;;;;;;;5063995;28;20230;-18
2022/07/16 08:57:32;;;;;;;2.13;0.70;;;;;;;;;;5065614;28;20237;-18
2022/07/16 09:00:00;;;;;;;3.38;0.63;;;;;;;;;;5067655;28;20229;-18
2022/07/16 09:02:27;;;;;;;3.05;0.70;;;;;;;;;;5063575;28;20311;-18
2022/07/16 09:04:56;;;;;;;2.97;0.90;;;;;;;;;;5062647;28;20317;-18
2022/07/16 09:07:24;;;;;;;2.42;0.52;;;;;;;;;;5070342;28;21078;-18
2022/07/16 09:09:51;;;;;;;3.47;0.80;;;;;;;;;;5063647;28;20229;-18
2022/07/16 09:12:33;;;;;;;4.43;0.90;;;;;;;;;;5056234;28;20234;-18
2022/07/16 09:15:00;;;;;;;3.72;0.90;;;;;;;;;;5063736;28;20260;-18
2022/07/16 09:17:27;;;;;;;4.53;0.90;;;;;;;;;;5069556;28;20222;-18
2022/07/16 09:19:56;;;;;;;3.50;1.00;;;;;;;;;;5061971;28;20332;-18
2022/07/16 09:22:24;;;;;;;2.83;0.80;;;;;;;;;;5067719;28;20323;-18
2022/07/16 09:24:52;;;;;;;1.65;0.65;;;;;;;;;;5064056;28;20242;-18
2022/07/16 09:27:22;;;;;;;4.22;0.90;;;;;;;;;;5069659;28;20279;-18
2022/07/16 09:29:51;;;;;;;4.22;1.10;;;;;;;;;;5070624;28;20339;-18
2022/07/16 09:32:26;;;;;;;2.85;0.80;;;;;;;;;;5068444;28;20349;-18
2022/07/16 09:35:02;;;;;;;2.85;1.02;;;;;;;;;;5064584;28;20853;-18
2022/07/16 09:37:44;;;;;;;1.63;0.55;;;;;;;;;;5066797;28;20225;-18
2022/07/16 09:40:12;;;;;;;2.30;0.82;;;;;;;;;;5070553;28;20233;-18
2022/07/16 09:42:39;;;;;;;5.05;0.95;;;;;;;;;;5069101;28;20312;-18
2022/07/16 09:45:07;;;;;;;6.90;0.93;;;;;;;;;;5057544;28;20351;-18
2022/07/16 09:47:34;;;;;;;3.42;0.70;;;;;;;;;;5057305;28;20400;-18
2022/07/16 09:50:04;;;;;;;4.05;0.82;;;;;;;;;;5058007;28;21398;-18
2022/07/16 09:52:32;;;;;;;3.63;0.65;;;;;;;;;;5057328;28;20239;-18
2022/07/16 09:55:00;;;;;;;1.38;0.60;;;;;;;;;;5064367;28;20245;-18
2022/07/16 09:57:28;;;;;;;3.70;0.77;;;;;;;;;;5071371;28;20225;-18
2022/07/16 09:59:56;;;;;;;3.22;0.90;;;;;;;;;;5073596;28;20256;-18
2022/07/16 10:02:28;;;;;;;3.40;0.68;;;;;;;;;;5063297;28;20253;-18
2022/07/16 10:04:55;;;;;;;2.50;0.88;;;;;;;;;;5070286;28;20269;-18
2022/07/16 10:07:31;;;;;;;3.78;0.80;;;;;;;;;;5059447;28;20258;-18
2022/07/16 10:09:59;;;;;;;2.28;0.80;;;;;;;;;;5070930;28;20289;-18
2022/07/16 10:12:29;;;;;;;4.22;0.90;;;;;;;;;;5068808;28;20233;-18
2022/07/16 10:14:57;;;;;;;5.25;0.75;;;;;;;;;;5071050;28;20233;-18
2022/07/16 10:17:31;;;;;;;2.13;0.73;;;;;;;;;;5071487;28;20232;-18
2022/07/16 10:20:00;;;;;;;4.07;0.90;;;;;;;;;;5068708;28;20577;-18
2022/07/16 10:22:28;;;;;;;3.92;1.00;;;;;;;;;;5071143;28;20755;-18
2022/07/16 10:24:57;;;;;;;3.88;0.50;;;;;;;;;;5069533;28;20229;-18
2022/07/16 10:27:25;;;;;;;2.40;0.70;;;;;;;;;;5071102;28;20229;-18
2022/07/16 10:30:08;;;;;;;6.75;0.85;;;;;;;;;;5072578;28;20229;-18
2022/07/16 10:32:50;;;;;;;7.78;0.80;;;;;;;;;;5068623;28;20313;-18
2022/07/16 10:35:27;;;;;;;3.60;0.80;;;;;;;;;;5062477;28;21021;-18
2022/07/16 10:38:03;;;;;;;4.82;1.02;;;;;;;;;;5063792;28;20225;-18
2022/07/16 10:41:04;;;;;;;6.10;1.13;;;;;;;;;;5069142;28;21030;-18
2022/07/16 10:43:32;;;;;;;4.07;0.70;;;;;;;;;;5059326;28;20232;-18
2022/07/16 10:46:00;;;;;;;2.75;0.82;;;;;;;;;;5058670;28;20972;-18
2022/07/16 10:48:27;;;;;;;2.40;0.70;;;;;;;;;;5066694;28;20241;-18
2022/07/16 10:51:11;;;;;;;6.82;0.93;;;;;;;;;;5058988;28;20305;-18
2022/07/16 10:53:57;;;;;;;3.95;0.93;;;;;;;;;;5067599;28;20711;-18
2022/07/16 10:56:35;;;;;;;2.80;0.80;;;;;;;;;;5071011;28;20229;-18
2022/07/16 10:59:03;;;;;;;6.22;1.05;;;;;;;;;;5069975;28;20406;-18
2022/07/16 11:01:31;;;;;;;3.03;0.90;;;;;;;;;;5070096;28;20531;-18
2022/07/16 11:03:58;;;;;;;4.57;0.80;;;;;;;;;;5069608;28;20261;-17
2022/07/16 11:06:26;;;;;;;4.50;0.70;;;;;;;;;;5069897;28;20237;-22
2022/07/16 11:08:53;;;;;;;6.68;1.00;;;;;;;;;;5063880;28;20234;-19
2022/07/16 11:11:21;;;;;;;6.18;0.80;;;;;;;;;;5067950;28;20318;-19
2022/07/16 11:13:49;;;;;;;3.22;0.98;;;;;;;;;;5065591;28;20328;-19
2022/07/16 11:16:25;;;;;;;4.10;0.80;;;;;;;;;;5062973;28;20230;-18
2022/07/16 11:18:53;;;;;;;4.13;0.75;;;;;;;;;;5057998;28;20292;-19
2022/07/16 11:21:20;;;;;;;3.67;0.80;;;;;;;;;;5065286;28;21203;-19
2022/07/16 11:23:48;;;;;;;4.20;0.60;;;;;;;;;;5064188;28;20234;-19
2022/07/16 11:26:15;;;;;;;2.97;0.70;;;;;;;;;;5063850;28;20701;-19
2022/07/16 11:28:51;;;;;;;3.28;0.75;;;;;;;;;;5059881;28;20238;-19
2022/07/16 11:31:23;;;;;;;6.53;1.00;;;;;;;;;;5068177;28;21621;-18
2022/07/16 11:33:51;;;;;;;2.45;0.85;;;;;;;;;;5066766;28;20237;-19
2022/07/16 11:36:19;;;;;;;4.45;0.68;;;;;;;;;;5064148;28;20237;-19
2022/07/16 11:38:47;;;;;;;4.28;0.80;;;;;;;;;;5067363;28;20229;-19
2022/07/16 11:41:14;;;;;;;5.28;0.80;;;;;;;;;;5061106;28;20265;-19
2022/07/16 11:43:42;;;;;;;5.15;0.90;;;;;;;;;;5068039;28;20240;-19
2022/07/16 11:46:21;;;;;;;2.47;0.80;;;;;;;;;;5064509;28;20785;-19
2022/07/16 11:48:49;;;;;;;6.22;0.90;;;;;;;;;;5063120;28;20237;-19
2022/07/16 11:51:17;;;;;;;4.03;0.70;;;;;;;;;;5063337;28;20252;-19
2022/07/16 11:53:46;;;;;;;3.83;1.20;;;;;;;;;;5066402;28;20686;-19
2022/07/16 11:56:14;;;;;;;5.35;0.85;;;;;;;;;;5066543;28;20324;-19
2022/07/16 11:58:41;;;;;;;3.15;0.90;;;;;;;;;;5063553;28;20229;-19
2022/07/16 12:01:10;;;;;;;2.00;0.70;;;;;;;;;;5067499;28;20236;-19
2022/07/16 12:03:39;;;;;;;2.50;0.80;;;;;;;;;;5065924;28;20228;-19
2022/07/16 12:06:07;;;;;;;7.75;1.63;;;;;;;;;;5066439;28;20245;-19
2022/07/16 12:08:36;;;;;;;11.02;1.35;;;;;;;;;;5069172;28;20248;-19
2022/07/16 12:11:04;;;;;;;8.25;1.40;;;;;;;;;;5066209;28;20993;-19
2022/07/16 12:13:31;;;;;;;9.68;1.02;;;;;;;;;;5067003;28;20324;-19
2022/07/16 12:16:02;;;;;;;6.13;1.33;;;;;;;;;;5064549;28;20242;-19
2022/07/16 12:18:29;;;;;;;8.48;1.10;;;;;;;;;;5065775;28;20259;-19
2022/07/16 12:21:11;;;;;;;12.60;1.08;;;;;;;;;;5065736;28;20329;-19
2022/07/16 12:23:40;;;;;;;13.00;1.50;;;;;;;;;;5068380;28;20229;-16
2022/07/16 12:26:08;;;;;;;8.52;1.23;;;;;;;;;;5054397;28;20241;-16
2022/07/16 12:28:35;;;;;;;3.85;0.95;;;;;;;;;;5065505;28;20332;-16
2022/07/16 12:31:06;;;;;;;4.43;0.98;;;;;;;;;;5058881;28;20236;-16
2022/07/16 12:33:34;;;;;;;11.40;1.17;;;;;;;;;;5058739;28;20222;-16
2022/07/16 12:36:02;;;;;;;10.18;0.82;;;;;;;;;;5069864;28;20236;-17
2022/07/16 12:38:45;;;;;;;2.38;0.80;;;;;;;;;;5071185;28;20731;-17
2022/07/16 12:41:14;;;;;;;3.58;0.90;;;;;;;;;;5070701;28;21065;-18
2022/07/16 12:43:42;;;;;;;3.03;0.70;;;;;;;;;;5067905;28;20630;-18
2022/07/16 12:46:12;;;;;;;4.03;0.73;;;;;;;;;;5061569;28;20606;-18
2022/07/16 12:48:43;;;;;;;3.53;0.63;;;;;;;;;;5069887;28;20239;-18
2022/07/16 12:51:10;;;;;;;3.40;0.75;;;;;;;;;;5071053;28;20230;-18
2022/07/16 12:53:38;;;;;;;3.33;0.70;;;;;;;;;;5061257;28;20226;-18
2022/07/16 12:58:53;;;;;;;4.20;0.70;;;;;;;;;;5064493;28;20323;-18
2022/07/16 13:01:21;;;;;;;4.72;0.93;;;;;;;;;;5067738;28;20237;-18
2022/07/16 13:03:48;;;;;;;2.47;0.63;;;;;;;;;;5057752;28;20320;-18
2022/07/16 13:06:16;;;;;;;4.72;0.60;;;;;;;;;;5067539;28;20246;-18
2022/07/16 13:08:44;;;;;;;2.30;0.50;;;;;;;;;;5060711;28;20285;-18
2022/07/16 13:11:13;;;;;;;3.00;0.88;;;;;;;;;;5063224;28;20237;-18
2022/07/16 13:13:41;;;;;;;1.67;0.85;;;;;;;;;;5057892;28;20226;-18
2022/07/16 13:16:08;;;;;;;2.53;0.60;;;;;;;;;;5070002;28;20234;-18
2022/07/16 13:18:36;;;;;;;3.90;0.90;;;;;;;;;;5062079;28;20233;-18
2022/07/16 13:21:04;;;;;;;2.53;0.65;;;;;;;;;;5070011;28;20245;-18
2022/07/16 13:23:31;;;;;;;3.03;0.90;;;;;;;;;;5060092;28;20237;-18
2022/07/16 13:25:58;;;;;;;1.80;0.82;;;;;;;;;;5070468;28;20261;-18
2022/07/16 13:28:27;;;;;;;2.30;0.70;;;;;;;;;;5065361;28;20227;-18
2022/07/16 13:30:54;;;;;;;3.90;0.80;;;;;;;;;;5064381;28;21067;-18
2022/07/16 13:33:23;;;;;;;1.75;0.57;;;;;;;;;;5061746;28;20236;-18
2022/07/16 13:35:52;;;;;;;1.85;0.63;;;;;;;;;;5056401;28;20237;-18
2022/07/16 13:38:19;;;;;;;1.65;0.65;;;;;;;;;;5069503;28;20258;-18
2022/07/16 13:40:46;;;;;;;3.92;0.82;;;;;;;;;;5069080;28;20231;-18
2022/07/16 13:43:16;;;;;;;4.57;1.08;;;;;;;;;;5064592;28;20237;-18
2022/07/16 13:45:45;;;;;;;2.00;0.47;;;;;;;;;;5070223;28;20328;-18
2022/07/16 13:48:15;;;;;;;2.83;0.65;;;;;;;;;;5060915;28;20221;-18
2022/07/16 13:50:42;;;;;;;4.00;0.90;;;;;;;;;;5059167;28;20550;-18
2022/07/16 13:53:10;;;;;;;3.83;0.68;;;;;;;;;;5056812;28;20237;-18
2022/07/16 13:55:38;;;;;;;2.22;0.98;;;;;;;;;;5062874;28;20233;-18
2022/07/16 13:58:17;;;;;;;3.67;0.70;;;;;;;;;;5058138;28;20229;-18
2022/07/16 14:00:47;;;;;;;2.50;0.65;;;;;;;;;;5069919;28;20232;-18
2022/07/16 14:03:15;;;;;;;2.60;0.70;;;;;;;;;;5057788;28;20234;-18
2022/07/16 14:05:42;;;;;;;3.28;0.80;;;;;;;;;;5061655;28;20233;-18
2022/07/16 14:08:10;;;;;;;4.32;1.05;;;;;;;;;;5067213;28;20222;-18
2022/07/16 14:10:37;;;;;;;2.30;0.70;;;;;;;;;;5069320;28;20348;-18
2022/07/16 14:13:05;;;;;;;1.98;0.47;;;;;;;;;;5059811;28;20258;-18
2022/07/16 14:15:33;;;;;;;3.63;0.80;;;;;;;;;;5070612;28;20261;-18
2022/07/16 14:18:02;;;;;;;3.20;0.70;;;;;;;;;;5062861;28;20234;-18
2022/07/16 14:20:29;;;;;;;2.30;0.55;;;;;;;;;;5069128;28;20285;-18
2022/07/16 14:22:57;;;;;;;1.33;0.45;;;;;;;;;;5055108;28;20257;-18
2022/07/16 14:25:24;;;;;;;4.07;0.70;;;;;;;;;;5069543;28;20225;-18
2022/07/16 14:27:52;;;;;;;4.57;0.80;;;;;;;;;;5061092;28;20237;-18
2022/07/16 14:30:20;;;;;;;1.83;0.50;;;;;;;;;;5067556;28;20346;-18
2022/07/16 14:32:47;;;;;;;2.13;0.57;;;;;;;;;;5058347;28;20236;-18
2022/07/16 14:35:16;;;;;;;2.63;0.50;;;;;;;;;;5062272;28;20265;-18
2022/07/16 14:37:44;;;;;;;3.17;0.68;;;;;;;;;;5070481;28;20240;-18
2022/07/16 14:40:12;;;;;;;2.78;0.60;;;;;;;;;;5072110;28;20229;-18
2022/07/16 14:42:40;;;;;;;1.45;0.50;;;;;;;;;;5073918;28;20234;-18
2022/07/16 14:45:07;;;;;;;3.75;0.65;;;;;;;;;;5066333;28;20251;-18
2022/07/16 14:47:35;;;;;;;2.10;0.60;;;;;;;;;;5064557;28;20685;-18
2022/07/16 14:50:04;;;;;;;2.45;0.70;;;;;;;;;;5072743;28;20281;-18
2022/07/16 14:52:32;;;;;;;2.97;0.77;;;;;;;;;;5061675;28;20440;-18
2022/07/16 14:55:00;;;;;;;3.28;0.55;;;;;;;;;;5056535;28;20705;-18
2022/07/16 14:57:27;;;;;;;2.05;0.60;;;;;;;;;;5073256;28;20243;-18
2022/07/16 14:59:55;;;;;;;2.80;0.70;;;;;;;;;;5072777;28;20226;-18
2022/07/16 15:02:22;;;;;;;4.00;0.70;;;;;;;;;;5068041;28;20690;-18